Crianlarich, United Kingdom
Current Conditions -  °F | °C
As of 6:50 AM on Saturday 20 Dec 2014 (Local Time) from EGPF Reporting Station
Few Clouds Few Clouds  
Wind Chill: 35°   Ceiling: Unl
Heat Index: 43°   Visibility: 6mi
Dew Point: 36°   Wind: 15mph
Humidity: 76%   Direction: 270°W
Pressure: 29.94"   Gusts: NA
Location:  56.39°N, 4.62°W
Report Text: EGPF 200650Z AUTO 27013KT 9999 FEW039/// //////TCU 06/02 Q1014
Loading
Personal Weather Stations






























Interactive Weather Map New forecast layout! Learn more

10-Day Weather Forecast

Advertisements
Track Severe Weather on mobile